Time;durP1;ratioP1;P1;durP2;ratioP2;P2;SDS_P1;SDS_P2;PMS_P1;PMS_P2;Temp;Humidity;BMP_temperature;BMP_pressure;BME280_temperature;BME280_humidity;BME280_pressure;Samples;Min_cycle;Max_cycle;Signal;HPM_P1;HPM_P2
2022/06/18 00:00:45;;;;;;;0.40;0.20;;;19.70;99.90;;;;;;5032125;28;20379;-71
2022/06/18 00:03:12;;;;;;;0.40;0.30;;;19.70;99.90;;;;;;5032127;28;20878;-71
2022/06/18 00:05:39;;;;;;;0.40;0.20;;;19.70;99.90;;;;;;5024340;28;20397;-71
2022/06/18 00:08:11;;;;;;;0.40;0.30;;;19.70;99.90;;;;;;5016021;28;20472;-71
2022/06/18 00:10:37;;;;;;;0.40;0.20;;;19.60;99.90;;;;;;5030142;28;20375;-71
2022/06/18 00:13:42;;;;;;;0.40;0.40;;;19.50;99.90;;;;;;5031645;28;20391;-71
2022/06/18 00:16:26;;;;;;;0.40;0.32;;;19.40;99.90;;;;;;5031946;28;20392;-71
2022/06/18 00:18:52;;;;;;;0.40;0.30;;;19.40;99.90;;;;;;5030610;28;20406;-71
2022/06/18 00:21:22;;;;;;;0.50;0.50;;;19.40;99.90;;;;;;5013606;28;20383;-71
2022/06/18 00:23:47;;;;;;;0.80;0.80;;;19.40;99.90;;;;;;5024076;28;20411;-71
2022/06/18 00:26:14;;;;;;;0.40;0.40;;;19.30;99.90;;;;;;5011964;28;20904;-72
2022/06/18 00:28:40;;;;;;;0.45;0.38;;;19.40;99.90;;;;;;5012921;28;20392;-71
2022/06/18 00:31:06;;;;;;;0.90;0.90;;;19.30;99.90;;;;;;5011636;28;20740;-72
2022/06/18 00:33:36;;;;;;;0.40;0.20;;;19.30;99.90;;;;;;5030812;28;20423;-71
2022/06/18 00:36:04;;;;;;;0.40;0.20;;;19.20;99.90;;;;;;5030817;28;20423;-72
2022/06/18 00:38:39;;;;;;;0.40;0.30;;;19.20;99.90;;;;;;5007706;28;20399;-71
2022/06/18 00:41:06;;;;;;;0.40;0.20;;;19.30;99.90;;;;;;4992092;28;20475;-73
2022/06/18 00:43:53;;;;;;;0.40;0.20;;;19.30;99.90;;;;;;5004459;28;20475;-71
2022/06/18 00:46:49;;;;;;;0.95;0.95;;;19.20;99.90;;;;;;5006845;28;20434;-72
2022/06/18 00:49:25;;;;;;;0.40;0.40;;;19.20;99.90;;;;;;4991980;28;20378;-72
2022/06/18 00:52:13;;;;;;;0.40;0.30;;;19.10;99.90;;;;;;5004096;28;20408;-71
2022/06/18 00:55:10;;;;;;;0.50;0.40;;;19.00;99.90;;;;;;5010285;28;20405;-71
2022/06/18 00:58:03;;;;;;;0.40;0.25;;;19.00;99.90;;;;;;5004627;28;20464;-71
2022/06/18 01:00:37;;;;;;;0.40;0.25;;;18.90;99.90;;;;;;4990773;28;20398;-71
2022/06/18 01:03:03;;;;;;;0.60;0.50;;;18.90;99.90;;;;;;4993414;28;20547;-72
2022/06/18 01:05:38;;;;;;;1.00;0.90;;;19.00;99.90;;;;;;4994849;28;20402;-71
2022/06/18 01:08:25;;;;;;;0.40;0.35;;;19.00;99.90;;;;;;5007633;28;20437;-72
2022/06/18 01:11:09;;;;;;;0.60;0.60;;;18.90;99.90;;;;;;4991997;28;20750;-71
2022/06/18 01:13:38;;;;;;;0.40;0.20;;;18.90;99.90;;;;;;4992605;28;20405;-72
2022/06/18 01:16:06;;;;;;;0.40;0.23;;;18.80;99.90;;;;;;5009930;28;20897;-72
2022/06/18 01:18:32;;;;;;;0.40;0.30;;;18.70;99.90;;;;;;5010510;28;20397;-72
2022/06/18 01:21:08;;;;;;;0.40;0.20;;;18.70;99.90;;;;;;5011410;28;20393;-71
2022/06/18 01:23:55;;;;;;;0.40;0.30;;;18.70;99.90;;;;;;5003954;28;20430;-72
2022/06/18 01:26:22;;;;;;;0.50;0.40;;;18.70;99.90;;;;;;5009128;28;20427;-72
2022/06/18 01:28:47;;;;;;;0.40;0.30;;;18.70;99.90;;;;;;5007034;28;20382;-72
2022/06/18 01:31:14;;;;;;;0.40;0.30;;;18.70;99.90;;;;;;4991253;28;20453;-72
2022/06/18 01:33:40;;;;;;;0.40;0.30;;;18.70;99.90;;;;;;5007657;28;20419;-72
2022/06/18 01:36:09;;;;;;;0.70;0.60;;;18.50;99.90;;;;;;5011506;28;20472;-72
2022/06/18 01:38:40;;;;;;;0.40;0.20;;;18.50;99.90;;;;;;5011402;28;20424;-71
2022/06/18 01:43:57;;;;;;;0.40;0.20;;;18.50;99.90;;;;;;5028460;28;20417;-71
2022/06/18 01:46:25;;;;;;;0.40;0.20;;;18.50;99.90;;;;;;5028274;28;20425;-71
2022/06/18 01:48:54;;;;;;;0.40;0.40;;;18.30;99.90;;;;;;5030739;28;20395;-71
2022/06/18 01:51:32;;;;;;;0.60;0.50;;;18.40;99.90;;;;;;5028237;28;20505;-71
2022/06/18 01:54:11;;;;;;;0.90;0.40;;;18.40;99.90;;;;;;5009643;28;20484;-72
2022/06/18 01:56:45;;;;;;;0.40;0.30;;;18.40;99.90;;;;;;5011316;28;20389;-72
2022/06/18 01:59:17;;;;;;;0.40;0.30;;;18.30;99.90;;;;;;5025226;28;20402;-71
2022/06/18 02:01:45;;;;;;;0.40;0.30;;;18.30;99.90;;;;;;5011213;28;20400;-71
2022/06/18 02:04:13;;;;;;;0.40;0.40;;;18.30;99.90;;;;;;5011651;28;20726;-72
2022/06/18 02:06:39;;;;;;;0.40;0.20;;;18.30;99.90;;;;;;5013497;28;20419;-71
2022/06/18 02:09:37;;;;;;;0.40;0.20;;;18.30;99.90;;;;;;5030756;28;20874;-71
2022/06/18 02:12:10;;;;;;;1.10;0.70;;;18.30;99.90;;;;;;5012894;28;20401;-71
2022/06/18 02:14:40;;;;;;;0.40;0.20;;;18.30;99.90;;;;;;5019452;28;20395;-71
2022/06/18 02:17:09;;;;;;;0.45;0.32;;;18.30;99.90;;;;;;5028871;28;20403;-71
2022/06/18 02:19:37;;;;;;;0.40;0.30;;;18.30;99.90;;;;;;5015000;28;20432;-71
2022/06/18 02:22:06;;;;;;;0.40;0.30;;;18.40;99.90;;;;;;5030391;28;20456;-72
2022/06/18 02:24:32;;;;;;;0.60;0.60;;;18.20;99.90;;;;;;5030243;28;20391;-71
2022/06/18 02:26:58;;;;;;;1.10;0.60;;;18.30;99.90;;;;;;5030203;28;20561;-71
2022/06/18 02:29:27;;;;;;;0.40;0.30;;;18.20;99.90;;;;;;5008825;28;20410;-71
2022/06/18 02:31:54;;;;;;;0.40;0.30;;;18.10;99.90;;;;;;5021575;28;20845;-71
2022/06/18 02:34:24;;;;;;;0.40;0.20;;;18.20;99.90;;;;;;5030194;28;20767;-72
2022/06/18 02:36:49;;;;;;;0.50;0.50;;;18.00;99.90;;;;;;5012700;28;20407;-71
2022/06/18 02:39:31;;;;;;;0.90;0.70;;;18.00;99.90;;;;;;5009991;28;20381;-71
2022/06/18 02:42:15;;;;;;;0.40;0.20;;;18.00;99.90;;;;;;5011028;28;20389;-71
2022/06/18 02:44:46;;;;;;;0.40;0.20;;;18.00;99.90;;;;;;5010878;28;20381;-71
2022/06/18 02:47:13;;;;;;;1.00;1.00;;;18.00;99.90;;;;;;5026958;28;20421;-73
2022/06/18 02:49:48;;;;;;;0.50;0.40;;;18.00;99.90;;;;;;5030582;28;20387;-71
2022/06/18 02:52:14;;;;;;;0.40;0.30;;;18.10;99.90;;;;;;5028064;28;20441;-72
2022/06/18 02:54:40;;;;;;;0.40;0.40;;;18.10;99.90;;;;;;4993750;28;20399;-71
2022/06/18 02:57:23;;;;;;;0.40;0.30;;;18.00;99.90;;;;;;5010915;28;20399;-71
2022/06/18 02:59:49;;;;;;;0.40;0.30;;;18.00;99.90;;;;;;5011118;28;20430;-71
2022/06/18 03:02:15;;;;;;;0.70;0.70;;;18.10;99.90;;;;;;5022266;28;20845;-72
2022/06/18 03:04:40;;;;;;;0.40;0.30;;;18.20;99.90;;;;;;5010555;28;20391;-71
2022/06/18 03:07:06;;;;;;;0.40;0.30;;;18.20;99.90;;;;;;5015713;28;20445;-71
2022/06/18 03:12:06;;;;;;;0.40;0.23;;;18.00;99.90;;;;;;5029740;28;20975;-72
2022/06/18 03:12:17;;;;;;;0.80;0.60;;;18.00;99.90;;;;;;5018485;28;20397;-72
2022/06/18 03:14:43;;;;;;;1.00;0.90;;;18.10;99.90;;;;;;5026386;28;20504;-71
2022/06/18 03:17:08;;;;;;;0.40;0.40;;;18.20;99.90;;;;;;5029411;28;20858;-71
2022/06/18 03:19:40;;;;;;;0.80;0.80;;;18.10;99.90;;;;;;5032217;28;20473;-71
2022/06/18 03:22:12;;;;;;;0.40;0.40;;;18.10;99.90;;;;;;5033235;28;20883;-73
2022/06/18 03:24:40;;;;;;;0.40;0.30;;;18.10;99.90;;;;;;5033153;28;20391;-72
2022/06/18 03:27:07;;;;;;;0.40;0.30;;;18.10;99.90;;;;;;5033017;28;20485;-72
2022/06/18 03:29:33;;;;;;;0.40;0.20;;;18.10;99.90;;;;;;5032435;28;20453;-72
2022/06/18 03:32:01;;;;;;;0.40;0.20;;;18.10;99.90;;;;;;5015391;28;20479;-72
2022/06/18 03:34:27;;;;;;;0.75;0.75;;;18.10;99.90;;;;;;5013708;28;20404;-72
2022/06/18 03:36:56;;;;;;;0.40;0.30;;;18.10;99.90;;;;;;5018512;28;20395;-72
2022/06/18 03:39:23;;;;;;;0.40;0.30;;;18.10;99.90;;;;;;5032712;28;20445;-72
2022/06/18 03:41:49;;;;;;;0.40;0.20;;;18.00;99.90;;;;;;5008829;28;20408;-71
2022/06/18 03:44:14;;;;;;;0.40;0.30;;;18.00;99.90;;;;;;5029376;28;20396;-73
2022/06/18 03:46:43;;;;;;;0.80;0.80;;;18.10;99.90;;;;;;5022567;28;20499;-71
2022/06/18 03:49:23;;;;;;;0.40;0.20;;;18.00;99.90;;;;;;5013471;28;20450;-71
2022/06/18 03:51:48;;;;;;;0.40;0.30;;;18.00;99.90;;;;;;5013516;28;20805;-71
2022/06/18 03:54:14;;;;;;;0.40;0.30;;;17.90;99.90;;;;;;4995587;28;20427;-72
2022/06/18 03:56:40;;;;;;;0.40;0.20;;;17.90;99.90;;;;;;5021017;28;20399;-72
2022/06/18 03:59:05;;;;;;;0.40;0.30;;;17.90;99.90;;;;;;5020416;28;20790;-71
2022/06/18 04:01:33;;;;;;;0.40;0.27;;;17.90;99.90;;;;;;5013251;28;20898;-72
2022/06/18 04:03:59;;;;;;;1.10;0.80;;;17.80;99.90;;;;;;5013369;28;20404;-73
2022/06/18 04:06:27;;;;;;;0.90;0.70;;;17.80;99.90;;;;;;5017089;28;20419;-74
2022/06/18 04:08:53;;;;;;;0.40;0.20;;;17.90;99.90;;;;;;5032653;28;20402;-74
2022/06/18 04:11:19;;;;;;;0.40;0.20;;;17.80;99.90;;;;;;5031728;28;20946;-74
2022/06/18 04:13:44;;;;;;;0.40;0.30;;;17.90;99.90;;;;;;5032494;28;20478;-75
2022/06/18 04:16:10;;;;;;;0.40;0.20;;;17.90;99.90;;;;;;5028236;28;20401;-75
2022/06/18 04:18:37;;;;;;;0.60;0.60;;;17.90;99.90;;;;;;5024240;28;20419;-74
2022/06/18 04:21:03;;;;;;;0.40;0.30;;;17.90;99.90;;;;;;5031762;28;20494;-72
2022/06/18 04:23:29;;;;;;;0.40;0.30;;;17.80;99.90;;;;;;5031891;28;20547;-72
2022/06/18 04:25:55;;;;;;;0.40;0.20;;;18.00;99.90;;;;;;5030654;28;20403;-72
2022/06/18 04:28:20;;;;;;;0.40;0.30;;;17.90;99.90;;;;;;5012004;28;20435;-73
2022/06/18 04:30:49;;;;;;;0.40;0.20;;;17.80;99.90;;;;;;5026350;28;20506;-72
2022/06/18 04:33:15;;;;;;;0.40;0.30;;;17.80;99.90;;;;;;5023326;28;20423;-73
2022/06/18 04:35:41;;;;;;;0.80;0.60;;;17.70;99.90;;;;;;5021376;28;20391;-73
2022/06/18 04:38:11;;;;;;;0.45;0.45;;;17.70;99.90;;;;;;5028334;28;20879;-73
2022/06/18 04:40:37;;;;;;;0.40;0.30;;;17.80;99.90;;;;;;5027689;28;20402;-72
2022/06/18 04:43:07;;;;;;;0.40;0.40;;;17.80;99.90;;;;;;5025115;28;20462;-73
2022/06/18 04:45:35;;;;;;;1.30;0.65;;;17.90;99.90;;;;;;5030302;28;20477;-73
2022/06/18 04:48:05;;;;;;;0.40;0.30;;;17.90;99.90;;;;;;5031885;28;20422;-73
2022/06/18 04:50:34;;;;;;;0.40;0.30;;;17.90;99.90;;;;;;5031332;28;20375;-72
2022/06/18 04:53:04;;;;;;;1.20;0.80;;;18.00;99.90;;;;;;5012438;28;20484;-72
2022/06/18 04:55:29;;;;;;;0.40;0.30;;;18.10;99.90;;;;;;5011712;28;20447;-72
2022/06/18 04:57:55;;;;;;;0.40;0.40;;;18.10;99.90;;;;;;5012376;28;20393;-72
2022/06/18 05:00:26;;;;;;;0.40;0.22;;;18.20;99.90;;;;;;5021240;28;20399;-72
2022/06/18 05:03:00;;;;;;;0.40;0.30;;;18.20;99.90;;;;;;5030350;28;20406;-72
2022/06/18 05:05:54;;;;;;;0.60;0.60;;;18.40;99.90;;;;;;5029487;28;20399;-72
2022/06/18 05:08:34;;;;;;;0.40;0.20;;;18.40;99.90;;;;;;5020682;28;20411;-72
2022/06/18 05:11:06;;;;;;;0.50;0.50;;;18.50;99.90;;;;;;5030085;28;20470;-72
2022/06/18 05:13:34;;;;;;;0.40;0.20;;;18.50;99.90;;;;;;5011204;28;20388;-72
2022/06/18 05:16:05;;;;;;;0.60;0.50;;;18.60;99.90;;;;;;5013203;28;20411;-72
2022/06/18 05:18:59;;;;;;;0.60;0.50;;;18.70;99.90;;;;;;5014830;28;20447;-72
2022/06/18 05:21:54;;;;;;;0.40;0.30;;;18.80;99.90;;;;;;5026422;28;20456;-72
2022/06/18 05:24:35;;;;;;;0.60;0.50;;;18.90;99.90;;;;;;5018869;28;20391;-72
2022/06/18 05:27:04;;;;;;;0.40;0.20;;;18.90;99.90;;;;;;5029129;28;20872;-72
2022/06/18 05:29:41;;;;;;;0.40;0.30;;;18.90;99.90;;;;;;5020338;28;20391;-72
2022/06/18 05:35:13;;;;;;;0.40;0.20;;;19.10;99.90;;;;;;4951114;29;20790;-72
2022/06/18 05:37:39;;;;;;;0.50;0.40;;;19.20;99.90;;;;;;4949282;29;20555;-72
2022/06/18 05:40:05;;;;;;;0.60;0.60;;;19.30;99.90;;;;;;4999312;28;20933;-72
2022/06/18 05:42:32;;;;;;;0.40;0.30;;;19.30;99.90;;;;;;5029248;28;20426;-72
2022/06/18 05:44:58;;;;;;;0.40;0.30;;;19.50;99.90;;;;;;5031041;28;20384;-73
2022/06/18 05:47:33;;;;;;;0.40;0.30;;;19.50;99.90;;;;;;5013568;28;20439;-73
2022/06/18 05:50:06;;;;;;;0.40;0.40;;;19.70;99.90;;;;;;5010398;28;20835;-72
2022/06/18 05:52:32;;;;;;;0.50;0.30;;;19.70;99.90;;;;;;5010225;28;20443;-72
2022/06/18 05:55:21;;;;;;;0.40;0.30;;;19.70;99.90;;;;;;5011340;28;20420;-72
2022/06/18 05:57:54;;;;;;;0.40;0.30;;;19.80;99.90;;;;;;4997854;28;20393;-73
2022/06/18 06:00:27;;;;;;;0.70;0.70;;;19.90;99.90;;;;;;5030510;28;20406;-72
2022/06/18 06:02:56;;;;;;;0.50;0.47;;;20.00;99.90;;;;;;5027511;28;20745;-73
2022/06/18 06:08:15;;;;;;;0.40;0.30;;;20.40;99.90;;;;;;5028714;28;20403;-74
2022/06/18 06:13:30;;;;;;;0.40;0.30;;;20.50;99.90;;;;;;5010120;28;20461;-72
2022/06/18 06:15:59;;;;;;;0.40;0.30;;;20.60;99.90;;;;;;5022287;28;20524;-72
2022/06/18 06:21:26;;;;;;;0.40;0.20;;;20.80;99.90;;;;;;5012026;28;20397;-73
2022/06/18 06:23:51;;;;;;;0.40;0.30;;;20.90;99.90;;;;;;5011302;28;20391;-72
2022/06/18 06:26:29;;;;;;;0.40;0.30;;;21.10;99.90;;;;;;5025367;28;20418;-73
2022/06/18 06:28:55;;;;;;;1.10;1.00;;;21.10;99.90;;;;;;5030579;28;20375;-73
2022/06/18 06:31:20;;;;;;;0.40;0.20;;;21.20;99.90;;;;;;5024360;28;20435;-73
2022/06/18 06:33:46;;;;;;;0.40;0.20;;;21.40;99.90;;;;;;5029471;28;20560;-72
2022/06/18 06:36:12;;;;;;;0.40;0.40;;;21.40;99.90;;;;;;5029884;28;20402;-72
2022/06/18 06:38:39;;;;;;;0.50;0.32;;;21.40;99.90;;;;;;5014227;28;20455;-72
2022/06/18 06:41:16;;;;;;;0.40;0.30;;;21.50;99.90;;;;;;5015801;28;20387;-72
2022/06/18 06:43:41;;;;;;;0.40;0.30;;;21.70;99.90;;;;;;5023628;28;20411;-73
2022/06/18 06:46:12;;;;;;;0.40;0.25;;;21.80;99.90;;;;;;4993020;28;20908;-73
2022/06/18 06:48:38;;;;;;;0.40;0.30;;;21.80;99.90;;;;;;5019464;28;20430;-73
2022/06/18 06:51:11;;;;;;;0.80;0.80;;;21.80;99.90;;;;;;5026344;28;20421;-73
2022/06/18 06:53:37;;;;;;;0.40;0.30;;;21.90;99.90;;;;;;5015608;28;20399;-73
2022/06/18 06:58:47;;;;;;;0.40;0.20;;;22.10;99.90;;;;;;5032358;28;20509;-73
2022/06/18 07:01:13;;;;;;;0.70;0.60;;;22.20;99.90;;;;;;5014595;28;20492;-73
2022/06/18 07:03:38;;;;;;;1.08;0.75;;;22.20;99.90;;;;;;5026611;28;20406;-72
2022/06/18 07:06:04;;;;;;;0.40;0.20;;;22.50;99.90;;;;;;5030948;28;20478;-72
2022/06/18 07:08:30;;;;;;;0.40;0.30;;;22.60;99.90;;;;;;5031820;28;20402;-72
2022/06/18 07:10:56;;;;;;;0.40;0.30;;;22.70;99.90;;;;;;5032778;28;20394;-72
2022/06/18 07:13:22;;;;;;;0.40;0.30;;;23.20;99.90;;;;;;5023247;28;20430;-72
2022/06/18 07:15:48;;;;;;;0.40;0.30;;;23.30;99.90;;;;;;5015548;28;21060;-72
2022/06/18 07:18:19;;;;;;;0.40;0.20;;;23.30;99.90;;;;;;5019398;28;20444;-72
2022/06/18 07:20:44;;;;;;;0.50;0.50;;;23.30;99.90;;;;;;5025478;28;20867;-72
2022/06/18 07:23:11;;;;;;;0.40;0.30;;;23.30;99.90;;;;;;5033255;28;20399;-72
2022/06/18 07:25:38;;;;;;;0.40;0.20;;;23.30;99.90;;;;;;5032927;28;20929;-72
2022/06/18 07:28:03;;;;;;;0.40;0.30;;;23.30;99.10;;;;;;5033706;28;20402;-72
2022/06/18 07:30:29;;;;;;;0.40;0.20;;;23.70;97.60;;;;;;5029379;28;20485;-72
2022/06/18 07:32:55;;;;;;;0.60;0.60;;;23.90;97.70;;;;;;5024586;28;20419;-72
2022/06/18 07:35:24;;;;;;;1.50;1.13;;;23.80;96.60;;;;;;5033502;28;20841;-72
2022/06/18 07:37:50;;;;;;;0.60;0.50;;;23.90;96.70;;;;;;5032680;28;20502;-71
2022/06/18 07:40:17;;;;;;;0.40;0.30;;;24.10;95.60;;;;;;5033344;28;20456;-72
2022/06/18 07:42:45;;;;;;;0.50;0.40;;;24.10;96.50;;;;;;5032040;28;20454;-71
2022/06/18 07:45:16;;;;;;;0.40;0.30;;;24.10;95.60;;;;;;5032690;28;20406;-71
2022/06/18 07:47:41;;;;;;;0.40;0.30;;;24.30;96.70;;;;;;5024607;28;20753;-71
2022/06/18 07:50:08;;;;;;;0.40;0.30;;;24.20;95.80;;;;;;5013280;28;20416;-71
2022/06/18 07:52:33;;;;;;;0.40;0.30;;;24.30;96.00;;;;;;5028899;28;20480;-71
2022/06/18 07:54:59;;;;;;;0.50;0.45;;;24.40;96.10;;;;;;5033086;28;20407;-70
2022/06/18 07:57:24;;;;;;;1.00;1.00;;;24.60;94.90;;;;;;5032757;28;20932;-71
2022/06/18 07:59:50;;;;;;;0.40;0.30;;;24.70;93.80;;;;;;5032488;28;21029;-71
2022/06/18 08:02:18;;;;;;;0.40;0.20;;;24.60;94.20;;;;;;5032986;28;20422;-71
2022/06/18 08:04:44;;;;;;;0.60;0.60;;;24.80;93.90;;;;;;5031064;28;20383;-70
2022/06/18 08:07:09;;;;;;;0.40;0.20;;;24.90;93.50;;;;;;5032643;28;20446;-71
2022/06/18 08:09:35;;;;;;;0.40;0.40;;;24.90;94.40;;;;;;5032180;28;20422;-71
2022/06/18 08:12:02;;;;;;;0.80;0.80;;;25.00;93.70;;;;;;5032353;28;20453;-71
2022/06/18 08:14:28;;;;;;;0.40;0.30;;;25.00;93.30;;;;;;5032852;28;20375;-71
2022/06/18 08:16:53;;;;;;;0.50;0.50;;;25.00;93.00;;;;;;5031692;28;20503;-71
2022/06/18 08:19:19;;;;;;;0.40;0.30;;;25.00;93.20;;;;;;5031712;28;20942;-71
2022/06/18 08:21:45;;;;;;;0.50;0.50;;;25.00;93.00;;;;;;5024912;28;20397;-70
2022/06/18 08:24:15;;;;;;;0.43;0.33;;;25.00;92.80;;;;;;5031722;28;20387;-70
2022/06/18 08:26:43;;;;;;;0.40;0.30;;;25.10;93.00;;;;;;5031914;28;20414;-71
2022/06/18 08:29:12;;;;;;;0.40;0.40;;;25.20;91.80;;;;;;5019488;28;20374;-69
2022/06/18 08:31:38;;;;;;;0.40;0.30;;;25.60;91.40;;;;;;5011747;28;20417;-70
2022/06/18 08:34:04;;;;;;;0.40;0.20;;;25.70;91.10;;;;;;5022178;28;20446;-70
2022/06/18 08:36:30;;;;;;;0.40;0.30;;;25.60;89.90;;;;;;5029229;28;20391;-70
2022/06/18 08:38:57;;;;;;;0.40;0.30;;;25.60;90.00;;;;;;5031797;28;20840;-71
2022/06/18 08:41:28;;;;;;;0.90;0.50;;;25.90;89.30;;;;;;5014542;28;20725;-70
2022/06/18 08:44:19;;;;;;;0.47;0.40;;;26.00;89.50;;;;;;5031306;28;21235;-69
2022/06/18 08:47:28;;;;;;;0.50;0.40;;;26.20;88.90;;;;;;5031008;28;20771;-67
2022/06/18 08:50:10;;;;;;;0.40;0.30;;;26.30;88.10;;;;;;5031282;28;20462;-68
2022/06/18 08:52:57;;;;;;;0.40;0.30;;;26.50;87.40;;;;;;5031421;28;20422;-69
2022/06/18 08:55:42;;;;;;;0.73;0.70;;;26.50;87.00;;;;;;5031925;28;20438;-68
2022/06/18 08:58:45;;;;;;;0.40;0.30;;;26.50;86.30;;;;;;5031925;28;20387;-68
2022/06/18 09:01:24;;;;;;;2.00;0.70;;;26.60;86.20;;;;;;5031837;28;20747;-68
2022/06/18 09:04:04;;;;;;;0.40;0.30;;;26.70;85.20;;;;;;5031267;28;20399;-69
2022/06/18 09:06:54;;;;;;;0.40;0.30;;;26.70;86.30;;;;;;5031635;28;20513;-68
2022/06/18 09:09:48;;;;;;;0.88;0.68;;;26.70;85.70;;;;;;5020999;28;20478;-67
2022/06/18 09:12:32;;;;;;;1.10;0.90;;;26.90;83.40;;;;;;5029909;28;20426;-68
2022/06/18 09:15:28;;;;;;;0.50;0.40;;;27.00;81.20;;;;;;5010782;28;20908;-69
2022/06/18 09:18:04;;;;;;;0.68;0.65;;;26.90;81.60;;;;;;5030334;28;20502;-68
2022/06/18 09:20:35;;;;;;;0.50;0.50;;;27.10;81.80;;;;;;5031241;28;20503;-69
2022/06/18 09:23:08;;;;;;;0.80;0.80;;;27.10;82.00;;;;;;5031133;28;20462;-68
2022/06/18 09:25:42;;;;;;;0.60;0.60;;;27.10;80.30;;;;;;5030548;28;20481;-69
2022/06/18 09:28:14;;;;;;;1.10;1.00;;;27.30;82.10;;;;;;5031154;28;20422;-67
2022/06/18 09:30:42;;;;;;;0.40;0.30;;;27.30;81.10;;;;;;5030407;28;20736;-68
2022/06/18 09:33:13;;;;;;;0.40;0.28;;;27.30;80.90;;;;;;5018990;28;20747;-68
2022/06/18 09:35:50;;;;;;;0.50;0.47;;;27.50;79.90;;;;;;5010652;28;20880;-69
2022/06/18 09:38:29;;;;;;;0.40;0.40;;;27.40;79.40;;;;;;5011595;28;20395;-68
2022/06/18 09:40:58;;;;;;;0.40;0.30;;;27.60;79.20;;;;;;5010658;28;20444;-68
2022/06/18 09:43:42;;;;;;;0.40;0.20;;;27.60;79.40;;;;;;5011796;28;20388;-69
2022/06/18 09:46:43;;;;;;;0.50;0.40;;;27.60;80.20;;;;;;5014059;28;20422;-68
2022/06/18 09:49:09;;;;;;;1.30;1.20;;;27.80;77.20;;;;;;4987190;28;20407;-69
2022/06/18 09:54:32;;;;;;;0.40;0.20;;;27.90;77.20;;;;;;5023555;28;20414;-69
2022/06/18 09:57:00;;;;;;;0.82;0.55;;;28.00;78.90;;;;;;5028824;28;20470;-68
2022/06/18 09:59:33;;;;;;;0.40;0.30;;;28.00;77.70;;;;;;5028395;28;20409;-69
2022/06/18 10:02:00;;;;;;;0.50;0.40;;;28.30;76.50;;;;;;5026714;28;20744;-69
2022/06/18 10:07:17;;;;;;;0.40;0.30;;;28.20;75.20;;;;;;5015554;28;20427;-69
2022/06/18 10:09:56;;;;;;;0.40;0.30;;;28.40;72.40;;;;;;5010133;28;20899;-69
2022/06/18 10:12:27;;;;;;;0.40;0.40;;;28.60;74.40;;;;;;5027715;28;20403;-69
2022/06/18 10:14:56;;;;;;;0.60;0.50;;;28.80;72.70;;;;;;5028773;28;20404;-68
2022/06/18 10:17:34;;;;;;;0.40;0.20;;;28.80;73.30;;;;;;5029454;28;20407;-68
2022/06/18 10:20:05;;;;;;;0.40;0.20;;;28.90;71.80;;;;;;5026884;28;20403;-69
2022/06/18 10:22:56;;;;;;;0.40;0.30;;;28.80;71.00;;;;;;5029689;28;20760;-69
2022/06/18 10:25:42;;;;;;;0.40;0.20;;;28.90;70.90;;;;;;5030113;28;20427;-69
2022/06/18 10:28:44;;;;;;;0.40;0.30;;;28.90;71.20;;;;;;5031059;28;20422;-68
2022/06/18 10:31:46;;;;;;;0.40;0.30;;;29.00;71.10;;;;;;5034475;28;20477;-69
2022/06/18 10:34:30;;;;;;;0.40;0.30;;;29.10;69.90;;;;;;5002859;28;20494;-69
2022/06/18 10:37:17;;;;;;;0.40;0.30;;;29.00;69.40;;;;;;5033733;28;20390;-69
2022/06/18 10:39:59;;;;;;;0.50;0.40;;;29.20;68.30;;;;;;5033793;28;20383;-69
2022/06/18 10:42:40;;;;;;;0.40;0.30;;;29.20;68.70;;;;;;5034269;28;20438;-68
2022/06/18 10:45:14;;;;;;;0.40;0.37;;;29.30;68.50;;;;;;5034233;28;20383;-69
2022/06/18 10:47:44;;;;;;;0.40;0.40;;;29.50;66.80;;;;;;5033809;28;20882;-70
2022/06/18 10:50:13;;;;;;;0.40;0.30;;;29.60;69.20;;;;;;5034484;28;20383;-70
2022/06/18 10:52:41;;;;;;;0.40;0.20;;;29.60;67.40;;;;;;5030435;28;20437;-71
2022/06/18 10:55:10;;;;;;;0.40;0.30;;;29.80;72.80;;;;;;5034182;28;20403;-70
2022/06/18 10:57:36;;;;;;;0.40;0.20;;;29.80;67.70;;;;;;5034213;28;20383;-70
2022/06/18 11:00:25;;;;;;;0.80;0.50;;;29.90;69.80;;;;;;5032062;28;20406;-69
2022/06/18 11:02:54;;;;;;;0.40;0.30;;;30.00;63.80;;;;;;5033361;28;20472;-70
2022/06/18 11:05:30;;;;;;;0.40;0.20;;;30.10;64.90;;;;;;5034241;28;20387;-69
2022/06/18 11:08:00;;;;;;;0.40;0.40;;;30.10;64.20;;;;;;5033070;28;20427;-70
2022/06/18 11:10:33;;;;;;;0.40;0.30;;;30.20;64.10;;;;;;5033943;28;20510;-69
2022/06/18 11:13:00;;;;;;;1.10;1.00;;;30.50;65.60;;;;;;5033063;28;20489;-70
2022/06/18 11:15:38;;;;;;;0.70;0.70;;;30.60;61.80;;;;;;5033844;28;20406;-69
2022/06/18 11:18:24;;;;;;;0.40;0.30;;;30.60;63.00;;;;;;5033134;28;20386;-69
2022/06/18 11:21:05;;;;;;;0.50;0.40;;;30.40;62.50;;;;;;5033000;28;20393;-69
2022/06/18 11:23:36;;;;;;;0.40;0.30;;;30.90;62.90;;;;;;5033666;28;20742;-69
2022/06/18 11:26:05;;;;;;;0.50;0.40;;;30.90;61.40;;;;;;5032815;28;20363;-69
2022/06/18 11:28:39;;;;;;;0.40;0.20;;;31.20;63.40;;;;;;5033711;28;20724;-69
2022/06/18 11:31:06;;;;;;;0.40;0.20;;;31.30;60.40;;;;;;5033137;28;20424;-70
2022/06/18 11:33:41;;;;;;;0.40;0.30;;;31.60;61.00;;;;;;5033724;28;20415;-70
2022/06/18 11:36:15;;;;;;;0.50;0.38;;;31.90;60.10;;;;;;5032932;28;20432;-69
2022/06/18 11:38:50;;;;;;;0.40;0.20;;;32.00;59.00;;;;;;5033045;28;20894;-70
2022/06/18 11:41:18;;;;;;;0.40;0.30;;;32.10;59.00;;;;;;5028792;28;20499;-70
2022/06/18 11:44:04;;;;;;;0.40;0.30;;;33.00;59.50;;;;;;5029892;28;20398;-70
2022/06/18 11:46:32;;;;;;;0.40;0.40;;;33.60;56.80;;;;;;5033921;28;20767;-70
2022/06/18 11:49:21;;;;;;;0.50;0.40;;;34.40;56.00;;;;;;5031459;28;21555;-70
2022/06/18 11:51:49;;;;;;;0.45;0.38;;;34.70;53.70;;;;;;5025734;28;20409;-70
2022/06/18 11:54:52;;;;;;;0.40;0.20;;;35.00;53.50;;;;;;5022300;28;20401;-70
2022/06/18 11:57:27;;;;;;;0.40;0.20;;;34.70;52.90;;;;;;5021911;28;20422;-71
2022/06/18 12:00:17;;;;;;;0.40;0.20;;;35.10;51.30;;;;;;5019564;28;20911;-70
2022/06/18 12:03:15;;;;;;;0.40;0.20;;;35.00;53.10;;;;;;5020465;28;20413;-69
2022/06/18 12:05:46;;;;;;;0.40;0.40;;;35.80;49.50;;;;;;5012977;28;20735;-69
2022/06/18 12:08:17;;;;;;;0.40;0.20;;;36.40;48.90;;;;;;5013238;28;20413;-69
2022/06/18 12:11:14;;;;;;;0.40;0.20;;;35.90;49.60;;;;;;5012971;28;20385;-69
2022/06/18 12:13:49;;;;;;;0.40;0.20;;;35.90;50.30;;;;;;5013134;28;20396;-68
2022/06/18 12:16:24;;;;;;;0.40;0.20;;;35.60;52.60;;;;;;5013489;28;20447;-68
2022/06/18 12:19:00;;;;;;;0.40;0.20;;;36.20;49.50;;;;;;5012235;28;20388;-68
2022/06/18 12:21:42;;;;;;;0.40;0.20;;;35.70;49.00;;;;;;5013107;28;20443;-69
2022/06/18 12:24:49;;;;;;;0.50;0.40;;;35.70;47.60;;;;;;5012534;28;20385;-68
2022/06/18 12:27:28;;;;;;;0.40;0.20;;;36.20;50.50;;;;;;5012785;28;20415;-68
2022/06/18 12:30:19;;;;;;;0.40;0.20;;;36.40;47.60;;;;;;5012048;28;20393;-69
2022/06/18 12:33:13;;;;;;;0.50;0.40;;;36.70;46.90;;;;;;5012047;28;20734;-69
2022/06/18 12:35:54;;;;;;;0.40;0.20;;;36.50;46.70;;;;;;5012744;28;20404;-68
2022/06/18 12:38:43;;;;;;;0.40;0.30;;;36.30;47.70;;;;;;5012755;28;20399;-68
2022/06/18 12:41:38;;;;;;;0.40;0.35;;;37.10;46.30;;;;;;5012013;28;20385;-68
2022/06/18 12:44:27;;;;;;;0.40;0.20;;;36.30;46.50;;;;;;5011836;28;20397;-69
2022/06/18 12:46:59;;;;;;;0.50;0.50;;;36.10;45.10;;;;;;5011533;28;20854;-69
2022/06/18 12:49:36;;;;;;;0.40;0.22;;;35.20;46.40;;;;;;5012215;28;20404;-68
2022/06/18 12:52:30;;;;;;;0.40;0.20;;;35.40;45.20;;;;;;5011127;28;20389;-68
2022/06/18 12:55:23;;;;;;;0.40;0.40;;;35.70;46.30;;;;;;5011580;28;20455;-68
2022/06/18 12:58:17;;;;;;;0.47;0.47;;;35.70;45.90;;;;;;5011623;28;20396;-70
2022/06/18 13:00:49;;;;;;;0.47;0.30;;;35.20;46.20;;;;;;5012371;28;20384;-69
2022/06/18 13:03:36;;;;;;;0.50;0.50;;;35.60;46.00;;;;;;5012455;28;20405;-69
2022/06/18 13:06:18;;;;;;;0.50;0.40;;;35.70;47.70;;;;;;5011457;28;20522;-69
2022/06/18 13:09:06;;;;;;;0.40;0.20;;;35.90;46.60;;;;;;5012215;28;20413;-69
2022/06/18 13:11:55;;;;;;;0.40;0.28;;;35.30;47.80;;;;;;5012018;28;20829;-69
2022/06/18 13:15:05;;;;;;;0.40;0.30;;;35.80;46.30;;;;;;4997442;28;20405;-68
2022/06/18 13:17:37;;;;;;;0.40;0.28;;;35.80;46.10;;;;;;4932160;29;20419;-69
2022/06/18 13:20:09;;;;;;;0.50;0.50;;;35.50;49.80;;;;;;4931380;29;20387;-69
2022/06/18 13:22:35;;;;;;;0.45;0.32;;;35.80;47.00;;;;;;4975662;28;20397;-69
2022/06/18 13:28:13;;;;;;;0.40;0.30;;;35.40;49.20;;;;;;5011491;28;20431;-69
2022/06/18 13:31:03;;;;;;;0.50;0.50;;;35.60;51.00;;;;;;5011735;28;20397;-69
2022/06/18 13:33:43;;;;;;;0.40;0.22;;;35.50;49.10;;;;;;5011594;28;20530;-70
2022/06/18 13:36:41;;;;;;;0.40;0.30;;;35.50;47.20;;;;;;5023222;28;20411;-70
2022/06/18 13:39:10;;;;;;;0.40;0.30;;;35.40;47.90;;;;;;5010578;28;21331;-69
2022/06/18 13:41:44;;;;;;;0.40;0.20;;;36.10;47.60;;;;;;5029906;28;20407;-70
2022/06/18 13:44:27;;;;;;;0.40;0.20;;;36.60;44.70;;;;;;5030483;28;20375;-70
2022/06/18 13:47:02;;;;;;;0.40;0.30;;;36.30;45.30;;;;;;5029866;28;20915;-70